createdAt,value
2023-03-31T00:00:19.022Z,9.36
2023-03-31T00:01:21.923Z,9.35
2023-03-31T00:02:24.879Z,9.34
2023-03-31T00:03:28.117Z,9.42
2023-03-31T00:04:32.426Z,9.45
2023-03-31T00:05:37.695Z,9.44
2023-03-31T00:06:42.382Z,9.42
2023-03-31T00:07:46.265Z,9.41
2023-03-31T00:08:52.558Z,9.41
2023-03-31T00:10:07.147Z,9.52
2023-03-31T00:11:22.097Z,9.50
2023-03-31T00:12:24.998Z,9.62
2023-03-31T00:13:28.415Z,9.63
2023-03-31T00:14:31.247Z,9.67
2023-03-31T00:15:34.019Z,9.61
2023-03-31T00:16:39.067Z,9.65
2023-03-31T00:17:41.831Z,9.58
2023-03-31T00:18:47.875Z,9.53
2023-03-31T00:19:51.583Z,9.61
2023-03-31T00:20:54.680Z,9.59
2023-03-31T00:22:02.230Z,9.63
2023-03-31T00:23:11.309Z,9.56
2023-03-31T00:24:15.818Z,9.51
2023-03-31T00:25:18.678Z,9.52
2023-03-31T00:26:22.911Z,9.48
2023-03-31T00:27:25.670Z,9.51
2023-03-31T00:28:28.395Z,9.44
2023-03-31T00:29:33.892Z,9.40
2023-03-31T00:30:36.850Z,9.35
2023-03-31T00:31:39.946Z,9.38
2023-03-31T00:32:42.973Z,9.32
2023-03-31T00:33:45.814Z,9.28
2023-03-31T00:34:48.437Z,9.36
2023-03-31T00:35:54.089Z,9.37
2023-03-31T00:36:58.028Z,9.32
2023-03-31T00:38:00.906Z,9.31
2023-03-31T00:39:09.586Z,9.31
2023-03-31T00:40:12.563Z,9.32
2023-03-31T00:41:16.247Z,9.31
2023-03-31T00:42:19.270Z,9.30
2023-03-31T00:43:42.564Z,9.28
2023-03-31T00:45:19.018Z,9.23
2023-03-31T00:46:31.395Z,9.24
2023-03-31T00:47:35.404Z,9.29
2023-03-31T00:48:38.598Z,9.23
2023-03-31T00:49:46.622Z,9.23
2023-03-31T00:50:54.477Z,9.24
2023-03-31T00:52:25.100Z,9.21
2023-03-31T00:53:32.706Z,9.25
2023-03-31T00:54:38.112Z,9.21
2023-03-31T00:55:45.648Z,9.19
2023-03-31T00:56:50.384Z,9.30
2023-03-31T00:57:54.002Z,9.29
2023-03-31T00:59:02.242Z,9.24
2023-03-31T01:00:19.206Z,9.24
2023-03-31T01:01:27.055Z,9.21
2023-03-31T01:02:29.774Z,9.35
2023-03-31T01:03:33.674Z,9.32
2023-03-31T01:04:42.703Z,9.29
2023-03-31T01:06:05.203Z,9.18
2023-03-31T01:07:34.544Z,9.13
2023-03-31T01:08:38.887Z,9.10
2023-03-31T01:09:42.231Z,9.18
2023-03-31T01:11:02.427Z,9.17
2023-03-31T01:12:09.329Z,9.19
2023-03-31T01:13:15.059Z,9.09
2023-03-31T01:14:17.938Z,9.03
2023-03-31T01:15:20.773Z,9.11
2023-03-31T01:16:24.221Z,9.04
2023-03-31T01:17:30.246Z,9.03
2023-03-31T01:18:36.541Z,8.94
2023-03-31T01:20:14.787Z,8.92
2023-03-31T01:21:20.487Z,8.91
2023-03-31T01:23:00.266Z,8.84
2023-03-31T01:24:11.612Z,8.78
2023-03-31T01:26:15.998Z,8.76
2023-03-31T01:27:44.175Z,8.73
2023-03-31T01:29:08.902Z,8.83
2023-03-31T01:30:20.850Z,8.83
2023-03-31T01:31:23.859Z,8.79
2023-03-31T01:33:04.942Z,8.74
2023-03-31T01:34:22.471Z,8.72
2023-03-31T01:35:48.317Z,8.72
2023-03-31T01:37:23.624Z,8.75
2023-03-31T01:39:03.945Z,8.67
2023-03-31T01:40:31.281Z,8.66
2023-03-31T01:42:08.568Z,8.65
2023-03-31T01:43:35.875Z,8.56
2023-03-31T01:45:03.183Z,8.55
2023-03-31T01:46:14.454Z,8.49
2023-03-31T01:47:25.803Z,8.47
2023-03-31T01:48:57.816Z,8.44
2023-03-31T01:50:08.478Z,8.42
2023-03-31T01:51:17.096Z,8.41
2023-03-31T01:52:32.963Z,8.38
2023-03-31T01:54:23.757Z,8.39
2023-03-31T01:55:44.320Z,8.45
2023-03-31T01:56:53.997Z,8.34
2023-03-31T01:58:08.101Z,8.33
2023-03-31T01:59:39.931Z,8.26
2023-03-31T02:00:52.160Z,8.20
2023-03-31T02:02:01.768Z,8.29
2023-03-31T02:03:12.297Z,8.25
2023-03-31T02:04:20.987Z,8.23
2023-03-31T02:05:31.964Z,8.35
2023-03-31T02:06:40.572Z,8.26
2023-03-31T02:07:50.485Z,8.18
2023-03-31T02:09:02.684Z,8.20
2023-03-31T02:10:09.897Z,8.08
2023-03-31T02:11:13.619Z,8.06
2023-03-31T02:12:17.564Z,8.00
2023-03-31T02:13:23.025Z,8.04
2023-03-31T02:14:30.141Z,8.03
2023-03-31T02:15:39.160Z,8.06
2023-03-31T02:16:47.795Z,8.09
2023-03-31T02:17:56.842Z,8.12
2023-03-31T02:19:06.114Z,8.01
2023-03-31T02:20:15.603Z,7.92
2023-03-31T02:21:20.853Z,7.87
2023-03-31T02:22:24.375Z,7.85
2023-03-31T02:23:32.102Z,7.81
2023-03-31T02:24:37.953Z,7.81
2023-03-31T02:25:57.381Z,7.83
2023-03-31T02:27:12.902Z,7.75
2023-03-31T02:28:22.515Z,7.68
2023-03-31T02:29:25.467Z,7.60
2023-03-31T02:30:41.074Z,7.64
2023-03-31T02:31:54.615Z,7.59
2023-03-31T02:32:58.179Z,7.54
2023-03-31T02:34:01.642Z,7.61
2023-03-31T02:35:06.370Z,7.61
2023-03-31T02:36:10.193Z,7.56
2023-03-31T02:37:13.953Z,7.48
2023-03-31T02:38:16.826Z,7.49
2023-03-31T02:39:25.192Z,7.40
2023-03-31T02:40:27.983Z,7.46
2023-03-31T02:41:30.993Z,7.42
2023-03-31T02:42:34.120Z,7.41
2023-03-31T02:43:36.876Z,7.38
2023-03-31T02:44:40.336Z,7.36
2023-03-31T02:45:46.120Z,7.37
2023-03-31T02:46:50.542Z,7.40
2023-03-31T02:47:53.864Z,7.44
2023-03-31T02:49:00.139Z,7.43
2023-03-31T02:50:06.183Z,7.45
2023-03-31T02:51:09.158Z,7.57
2023-03-31T02:52:46.065Z,7.53
2023-03-31T02:54:15.763Z,7.48
2023-03-31T02:55:52.075Z,7.45
2023-03-31T02:57:13.847Z,7.51
2023-03-31T02:58:49.188Z,7.36
2023-03-31T03:00:18.164Z,7.29
2023-03-31T03:01:42.684Z,7.30
2023-03-31T03:03:08.229Z,7.29
2023-03-31T03:04:37.245Z,7.37
2023-03-31T03:05:55.145Z,7.27
2023-03-31T03:07:33.004Z,7.11
2023-03-31T03:08:58.349Z,7.05
2023-03-31T03:10:18.772Z,7.03
2023-03-31T03:11:34.237Z,7.09
2023-03-31T03:12:59.038Z,7.07
2023-03-31T03:14:13.879Z,7.05
2023-03-31T03:15:19.469Z,7.06
2023-03-31T03:16:27.603Z,7.12
2023-03-31T03:17:36.470Z,7.17
2023-03-31T03:18:39.710Z,7.22
2023-03-31T03:19:43.207Z,7.25
2023-03-31T03:20:51.167Z,7.16
2023-03-31T03:21:54.462Z,7.09
2023-03-31T03:22:57.650Z,7.12
2023-03-31T03:24:01.802Z,7.09
2023-03-31T03:25:10.681Z,7.17
2023-03-31T03:26:13.448Z,7.19
2023-03-31T03:27:16.261Z,7.21
2023-03-31T03:28:19.189Z,7.23
2023-03-31T03:29:22.522Z,7.18
2023-03-31T03:30:25.978Z,7.15
2023-03-31T03:31:28.798Z,7.17
2023-03-31T03:32:33.900Z,7.13
2023-03-31T03:33:37.110Z,7.20
2023-03-31T03:34:39.864Z,7.18
2023-03-31T03:35:43.489Z,7.22
2023-03-31T03:36:47.234Z,7.17
2023-03-31T03:37:50.108Z,7.12
2023-03-31T03:38:53.011Z,7.12
2023-03-31T03:39:56.012Z,7.13
2023-03-31T03:40:58.744Z,7.06
2023-03-31T03:42:01.504Z,7.06
2023-03-31T03:43:04.295Z,7.02
2023-03-31T03:44:06.979Z,7.02
2023-03-31T03:45:10.044Z,7.01
2023-03-31T03:46:13.481Z,6.96
2023-03-31T03:47:16.480Z,6.94
2023-03-31T03:48:19.538Z,6.99
2023-03-31T03:49:22.794Z,6.94
2023-03-31T03:50:25.562Z,6.94
2023-03-31T03:51:28.508Z,6.91
2023-03-31T03:52:31.201Z,6.88
2023-03-31T03:53:34.313Z,6.91
2023-03-31T03:54:36.992Z,6.96
2023-03-31T03:55:39.738Z,6.99
2023-03-31T03:56:42.811Z,7.05
2023-03-31T03:57:45.710Z,7.09
2023-03-31T03:58:48.839Z,7.05
2023-03-31T03:59:51.577Z,7.05
2023-03-31T04:00:54.285Z,6.98
2023-03-31T04:01:57.169Z,6.93
2023-03-31T04:03:00.100Z,6.89
2023-03-31T04:04:03.970Z,6.90
2023-03-31T04:05:07.005Z,6.89
2023-03-31T04:06:09.946Z,6.86
2023-03-31T04:07:13.132Z,6.86
2023-03-31T04:08:16.205Z,6.88
2023-03-31T04:09:18.912Z,6.93
2023-03-31T04:10:21.665Z,6.95
2023-03-31T04:11:24.709Z,6.95
2023-03-31T04:12:27.646Z,6.94
2023-03-31T04:13:30.420Z,6.92
2023-03-31T04:14:33.092Z,6.96
2023-03-31T04:15:36.145Z,6.97
2023-03-31T04:16:40.878Z,6.96
2023-03-31T04:17:51.209Z,6.94
2023-03-31T04:18:57.260Z,6.95
2023-03-31T04:20:07.866Z,7.00
2023-03-31T04:21:15.999Z,7.00
2023-03-31T04:22:20.770Z,7.01
2023-03-31T04:23:26.790Z,6.90
2023-03-31T04:24:33.395Z,6.86
2023-03-31T04:25:38.847Z,6.93
2023-03-31T04:26:45.006Z,6.86
2023-03-31T04:27:55.481Z,6.79
2023-03-31T04:29:02.007Z,6.79
2023-03-31T04:30:05.285Z,6.81
2023-03-31T04:31:11.039Z,6.79
2023-03-31T04:32:15.355Z,6.76
2023-03-31T04:33:19.235Z,6.80
2023-03-31T04:34:22.398Z,6.94
2023-03-31T04:35:27.585Z,6.87
2023-03-31T04:36:31.847Z,6.88
2023-03-31T04:37:39.002Z,6.88
2023-03-31T04:38:41.688Z,6.83
2023-03-31T04:39:46.970Z,6.83
2023-03-31T04:40:51.979Z,6.91
2023-03-31T04:41:54.777Z,6.86
2023-03-31T04:42:57.581Z,6.84
2023-03-31T04:44:00.459Z,6.80
2023-03-31T04:45:03.852Z,6.80
2023-03-31T04:46:06.989Z,6.79
2023-03-31T04:47:10.070Z,6.78
2023-03-31T04:48:13.160Z,6.77
2023-03-31T04:49:16.309Z,6.72
2023-03-31T04:50:19.139Z,6.68
2023-03-31T04:51:21.925Z,6.67
2023-03-31T04:52:24.671Z,6.66
2023-03-31T04:53:27.687Z,6.66
2023-03-31T04:54:30.733Z,6.70
2023-03-31T04:55:33.728Z,6.65
2023-03-31T04:56:36.564Z,6.63
2023-03-31T04:57:39.499Z,6.63
2023-03-31T04:58:42.395Z,6.60
2023-03-31T04:59:45.105Z,6.56
2023-03-31T05:00:48.306Z,6.61
2023-03-31T05:01:51.425Z,6.72
2023-03-31T05:02:54.188Z,6.70
2023-03-31T05:03:56.930Z,6.64
2023-03-31T05:04:59.616Z,6.58
2023-03-31T05:06:02.567Z,6.58
2023-03-31T05:07:05.742Z,6.59
2023-03-31T05:08:08.744Z,6.55
2023-03-31T05:09:11.605Z,6.66
2023-03-31T05:10:14.967Z,6.77
2023-03-31T05:11:17.899Z,6.73
2023-03-31T05:12:20.999Z,6.64
2023-03-31T05:13:23.811Z,6.59
2023-03-31T05:14:26.643Z,6.64
2023-03-31T05:15:29.618Z,6.60
2023-03-31T05:16:32.402Z,6.54
2023-03-31T05:17:36.703Z,6.50
2023-03-31T05:18:39.677Z,6.49
2023-03-31T05:19:42.480Z,6.52
2023-03-31T05:20:45.530Z,6.65
2023-03-31T05:21:49.176Z,6.59
2023-03-31T05:22:52.378Z,6.56
2023-03-31T05:23:55.253Z,6.55
2023-03-31T05:24:58.054Z,6.57
2023-03-31T05:26:00.997Z,6.61
2023-03-31T05:27:03.879Z,6.69
2023-03-31T05:28:06.708Z,6.77
2023-03-31T05:29:09.558Z,6.80
2023-03-31T05:30:12.875Z,6.86
2023-03-31T05:31:15.608Z,6.90
2023-03-31T05:32:18.332Z,6.87
2023-03-31T05:33:21.097Z,6.93
2023-03-31T05:34:23.835Z,6.95
2023-03-31T05:35:26.714Z,6.99
2023-03-31T05:36:29.779Z,7.01
2023-03-31T05:37:32.535Z,7.07
2023-03-31T05:38:35.876Z,7.09
2023-03-31T05:39:38.719Z,7.12
2023-03-31T05:40:41.816Z,7.15
2023-03-31T05:41:44.555Z,7.20
2023-03-31T05:42:47.155Z,7.26
2023-03-31T05:43:49.892Z,7.31
2023-03-31T05:44:52.600Z,7.37
2023-03-31T05:45:55.520Z,7.49
2023-03-31T05:46:58.320Z,7.55
2023-03-31T05:48:01.736Z,7.62
2023-03-31T05:49:04.621Z,7.68
2023-03-31T05:50:09.571Z,7.75
2023-03-31T05:51:12.354Z,7.80
2023-03-31T05:52:15.169Z,7.86
2023-03-31T05:53:17.884Z,7.95
2023-03-31T05:54:20.906Z,8.07
2023-03-31T05:55:23.821Z,8.15
2023-03-31T05:56:27.774Z,8.21
2023-03-31T05:57:30.809Z,8.23
2023-03-31T05:58:37.150Z,8.28
2023-03-31T05:59:42.304Z,8.29
2023-03-31T06:00:45.613Z,8.35
2023-03-31T06:01:48.889Z,8.39
2023-03-31T06:02:52.217Z,8.44
2023-03-31T06:03:54.994Z,8.46
2023-03-31T06:04:57.822Z,8.51
2023-03-31T06:06:02.427Z,8.57
2023-03-31T06:07:05.699Z,8.59
2023-03-31T06:08:08.448Z,8.59
2023-03-31T06:09:12.739Z,8.61
2023-03-31T06:10:16.249Z,8.70
2023-03-31T06:11:21.426Z,8.75
2023-03-31T06:12:24.057Z,8.76
2023-03-31T06:13:26.878Z,8.79
2023-03-31T06:14:30.016Z,8.82
2023-03-31T06:15:32.852Z,8.91
2023-03-31T06:16:35.678Z,8.98
2023-03-31T06:17:39.148Z,9.01
2023-03-31T06:18:42.414Z,9.05
2023-03-31T06:19:45.341Z,9.10
2023-03-31T06:20:48.043Z,9.14
2023-03-31T06:21:51.405Z,9.17
2023-03-31T06:22:54.048Z,9.27
2023-03-31T06:23:58.530Z,9.31
2023-03-31T06:25:01.408Z,9.35
2023-03-31T06:26:08.503Z,9.40
2023-03-31T06:27:11.309Z,9.47
2023-03-31T06:28:14.535Z,9.53
2023-03-31T06:29:17.217Z,9.70
2023-03-31T06:30:20.023Z,9.72
2023-03-31T06:31:25.125Z,9.76
2023-03-31T06:32:27.914Z,9.74
2023-03-31T06:33:30.938Z,9.76
2023-03-31T06:34:33.795Z,9.80
2023-03-31T06:35:40.652Z,9.85
2023-03-31T06:36:43.478Z,9.87
2023-03-31T06:37:46.925Z,9.88
2023-03-31T06:38:51.304Z,9.94
2023-03-31T06:39:54.368Z,9.97
2023-03-31T06:40:57.092Z,10.02
2023-03-31T06:42:00.122Z,10.10
2023-03-31T06:43:02.832Z,10.12
2023-03-31T06:44:05.991Z,10.18
2023-03-31T06:45:09.100Z,10.21
2023-03-31T06:46:12.572Z,10.25
2023-03-31T06:47:15.466Z,10.36
2023-03-31T06:48:18.275Z,10.41
2023-03-31T06:49:21.507Z,10.46
2023-03-31T06:50:24.438Z,10.54
2023-03-31T06:51:27.281Z,10.56
2023-03-31T06:52:31.723Z,10.55
2023-03-31T06:53:35.729Z,10.63
2023-03-31T06:54:38.624Z,10.70
2023-03-31T06:55:41.292Z,10.71
2023-03-31T06:56:44.285Z,10.73
2023-03-31T06:57:47.088Z,10.77
2023-03-31T06:58:50.141Z,10.80
2023-03-31T06:59:52.961Z,10.87
2023-03-31T07:00:55.981Z,10.94
2023-03-31T07:01:58.853Z,10.99
2023-03-31T07:03:02.141Z,11.06
2023-03-31T07:04:05.540Z,11.11
2023-03-31T07:05:08.247Z,11.15
2023-03-31T07:06:11.235Z,11.20
2023-03-31T07:07:14.012Z,11.25
2023-03-31T07:08:20.332Z,11.36
2023-03-31T07:09:23.809Z,11.40
2023-03-31T07:10:29.716Z,11.43
2023-03-31T07:11:32.595Z,11.53
2023-03-31T07:12:35.320Z,11.59
2023-03-31T07:13:37.972Z,11.69
2023-03-31T07:14:40.785Z,11.77
2023-03-31T07:15:44.788Z,11.81
2023-03-31T07:16:47.680Z,11.84
2023-03-31T07:18:02.199Z,11.80
2023-03-31T07:19:06.082Z,11.86
2023-03-31T07:20:19.283Z,11.88
2023-03-31T07:21:22.079Z,11.95
2023-03-31T07:22:24.714Z,11.97
2023-03-31T07:23:28.104Z,12.01
2023-03-31T07:24:31.210Z,12.01
2023-03-31T07:25:34.275Z,11.98
2023-03-31T07:26:37.306Z,12.00
2023-03-31T07:27:40.890Z,12.01
2023-03-31T07:28:43.733Z,12.09
2023-03-31T07:29:46.739Z,12.17
2023-03-31T07:30:49.699Z,12.25
2023-03-31T07:31:53.138Z,12.25
2023-03-31T07:32:55.931Z,12.27
2023-03-31T07:33:58.736Z,12.27
2023-03-31T07:35:01.612Z,12.31
2023-03-31T07:36:12.775Z,12.36
2023-03-31T07:37:16.915Z,12.36
2023-03-31T07:38:19.767Z,12.44
2023-03-31T07:39:22.808Z,12.57
2023-03-31T07:40:28.990Z,12.68
2023-03-31T07:41:36.311Z,12.69
2023-03-31T07:42:39.313Z,12.74
2023-03-31T07:43:42.532Z,12.85
2023-03-31T07:44:45.424Z,12.92
2023-03-31T07:45:48.476Z,12.98
2023-03-31T07:46:51.338Z,13.09
2023-03-31T07:47:54.831Z,13.11
2023-03-31T07:48:58.828Z,13.20
2023-03-31T07:50:01.608Z,13.23
2023-03-31T07:51:04.719Z,13.23
2023-03-31T07:52:07.555Z,13.23
2023-03-31T07:53:10.905Z,13.24
2023-03-31T07:54:13.703Z,13.27
2023-03-31T07:55:16.910Z,13.26
2023-03-31T07:56:24.878Z,13.24
2023-03-31T07:57:27.742Z,13.25
2023-03-31T07:58:30.690Z,13.30
2023-03-31T07:59:33.434Z,13.45
2023-03-31T08:00:36.575Z,13.59
2023-03-31T08:01:39.897Z,13.63
2023-03-31T08:02:43.549Z,13.65
2023-03-31T08:03:48.500Z,13.70
2023-03-31T08:04:51.166Z,13.85
2023-03-31T08:05:54.642Z,13.95
2023-03-31T08:06:57.907Z,13.99
2023-03-31T08:08:00.756Z,14.05
2023-03-31T08:09:05.363Z,14.13
2023-03-31T08:10:13.371Z,14.17
2023-03-31T08:11:17.072Z,14.22
2023-03-31T08:12:20.046Z,14.16
2023-03-31T08:13:22.854Z,14.22
2023-03-31T08:14:40.011Z,14.27
2023-03-31T08:15:44.212Z,14.33
2023-03-31T08:16:47.120Z,14.33
2023-03-31T08:17:50.223Z,14.30
2023-03-31T08:18:53.159Z,14.36
2023-03-31T08:19:56.383Z,14.47
2023-03-31T08:20:59.248Z,14.61
2023-03-31T08:22:02.064Z,14.70
2023-03-31T08:23:09.242Z,14.75
2023-03-31T08:24:12.025Z,14.89
2023-03-31T08:25:14.831Z,14.90
2023-03-31T08:26:24.423Z,14.85
2023-03-31T08:27:27.128Z,14.82
2023-03-31T08:28:29.831Z,14.81
2023-03-31T08:29:33.509Z,14.90
2023-03-31T08:30:38.487Z,15.01
2023-03-31T08:31:41.220Z,15.11
2023-03-31T08:32:44.673Z,15.10
2023-03-31T08:33:47.998Z,15.10
2023-03-31T08:34:51.812Z,15.22
2023-03-31T08:35:54.518Z,15.20
2023-03-31T08:36:57.525Z,15.30
2023-03-31T08:38:00.600Z,15.37
2023-03-31T08:39:04.921Z,15.41
2023-03-31T08:40:15.433Z,15.35
2023-03-31T08:41:31.009Z,15.37
2023-03-31T08:42:49.377Z,15.27
2023-03-31T08:43:56.434Z,15.30
2023-03-31T08:45:19.349Z,15.35
2023-03-31T08:46:22.788Z,15.43
2023-03-31T08:47:29.883Z,15.50
2023-03-31T08:48:45.551Z,15.61
2023-03-31T08:49:59.483Z,15.72
2023-03-31T08:51:12.040Z,15.77
2023-03-31T08:52:23.891Z,15.67
2023-03-31T08:53:29.249Z,15.63
2023-03-31T08:54:37.256Z,15.76
2023-03-31T08:55:57.043Z,15.82
2023-03-31T08:57:00.845Z,15.88
2023-03-31T08:58:29.783Z,15.88
2023-03-31T08:59:36.495Z,15.93
2023-03-31T09:01:03.710Z,15.90
2023-03-31T09:02:25.268Z,15.94
2023-03-31T09:04:13.091Z,15.97
2023-03-31T09:05:24.145Z,15.97
2023-03-31T09:07:02.805Z,16.00
2023-03-31T09:08:21.074Z,16.16
2023-03-31T09:09:45.934Z,16.30
2023-03-31T09:10:58.754Z,16.33
2023-03-31T09:12:10.864Z,16.40
2023-03-31T09:13:45.198Z,16.35
2023-03-31T09:14:59.499Z,16.48
2023-03-31T09:16:08.070Z,16.54
2023-03-31T09:17:45.323Z,16.59
2023-03-31T09:18:50.510Z,16.63
2023-03-31T09:19:59.137Z,16.62
2023-03-31T09:21:25.387Z,16.64
2023-03-31T09:22:33.797Z,16.68
2023-03-31T09:23:43.409Z,16.65
2023-03-31T09:24:52.771Z,16.58
2023-03-31T09:25:58.220Z,16.40
2023-03-31T09:27:05.121Z,16.40
2023-03-31T09:28:20.242Z,16.45
2023-03-31T09:29:32.308Z,16.47
2023-03-31T09:30:38.302Z,16.64
2023-03-31T09:31:43.516Z,16.78
2023-03-31T09:32:53.129Z,16.90
2023-03-31T09:34:01.884Z,16.92
2023-03-31T09:35:26.008Z,17.00
2023-03-31T09:36:29.049Z,16.99
2023-03-31T09:37:33.480Z,16.96
2023-03-31T09:38:36.829Z,16.97
2023-03-31T09:39:42.767Z,16.95
2023-03-31T09:40:46.017Z,17.09
2023-03-31T09:41:51.557Z,17.15
2023-03-31T09:43:02.090Z,17.11
2023-03-31T09:44:05.730Z,17.30
2023-03-31T09:45:16.319Z,17.31
2023-03-31T09:46:30.513Z,17.27
2023-03-31T09:47:43.074Z,17.28
2023-03-31T09:49:02.900Z,17.21
2023-03-31T09:50:08.078Z,17.33
2023-03-31T09:51:20.488Z,17.37
2023-03-31T09:52:35.435Z,17.28
2023-03-31T09:53:43.837Z,17.41
2023-03-31T09:54:54.408Z,17.35
2023-03-31T09:56:02.707Z,17.37
2023-03-31T09:57:24.482Z,17.40
2023-03-31T09:58:27.427Z,17.48
2023-03-31T09:59:36.220Z,17.54
2023-03-31T10:00:42.498Z,17.51
2023-03-31T10:01:48.054Z,17.57
2023-03-31T10:02:56.371Z,17.61
2023-03-31T10:03:59.165Z,17.64
2023-03-31T10:05:03.892Z,17.72
2023-03-31T10:06:11.682Z,17.72
2023-03-31T10:07:23.371Z,17.62
2023-03-31T10:08:32.906Z,17.57
2023-03-31T10:09:39.061Z,17.50
2023-03-31T10:11:06.667Z,17.36
2023-03-31T10:12:17.383Z,17.38
2023-03-31T10:13:46.866Z,17.44
2023-03-31T10:14:52.209Z,17.57
2023-03-31T10:16:08.649Z,17.60
2023-03-31T10:17:16.195Z,17.57
2023-03-31T10:18:21.354Z,17.62
2023-03-31T10:19:27.919Z,17.59
2023-03-31T10:20:39.516Z,17.71
2023-03-31T10:21:47.376Z,17.69
2023-03-31T10:22:51.393Z,17.53
2023-03-31T10:23:55.519Z,17.61
2023-03-31T10:25:20.802Z,17.66
2023-03-31T10:26:27.901Z,17.63
2023-03-31T10:27:31.826Z,17.58
2023-03-31T10:28:36.386Z,17.50
2023-03-31T10:29:39.322Z,17.40
2023-03-31T10:30:50.077Z,17.35
2023-03-31T10:31:53.342Z,17.38
2023-03-31T10:32:56.977Z,17.25
2023-03-31T10:34:05.299Z,17.27
2023-03-31T10:35:35.633Z,17.18
2023-03-31T10:36:39.795Z,17.08
2023-03-31T10:37:42.619Z,16.95
2023-03-31T10:38:48.689Z,16.87
2023-03-31T10:40:00.538Z,16.72
2023-03-31T10:41:04.335Z,16.52
2023-03-31T10:42:07.776Z,16.46
2023-03-31T10:43:21.386Z,16.37
2023-03-31T10:44:39.181Z,16.39
2023-03-31T10:45:55.036Z,16.25
2023-03-31T10:47:17.228Z,16.17
2023-03-31T10:48:49.390Z,16.18
2023-03-31T10:49:57.874Z,16.35
2023-03-31T10:51:06.892Z,16.63
2023-03-31T10:52:22.446Z,16.70
2023-03-31T10:53:25.240Z,16.89
2023-03-31T10:54:27.931Z,17.01
2023-03-31T10:55:36.876Z,17.23
2023-03-31T10:56:48.672Z,17.35
2023-03-31T10:58:23.998Z,17.39
2023-03-31T10:59:53.725Z,17.46
2023-03-31T11:00:58.031Z,17.58
2023-03-31T11:02:22.510Z,17.68
2023-03-31T11:03:37.274Z,17.79
2023-03-31T11:05:08.744Z,17.77
2023-03-31T11:06:28.930Z,17.76
2023-03-31T11:07:37.484Z,17.88
2023-03-31T11:08:54.577Z,17.82
2023-03-31T11:10:22.528Z,17.98
2023-03-31T11:11:49.790Z,18.17
2023-03-31T11:13:15.569Z,18.30
2023-03-31T11:14:44.473Z,18.40
2023-03-31T11:16:08.149Z,18.35
2023-03-31T11:17:11.018Z,18.45
2023-03-31T11:18:44.514Z,18.38
2023-03-31T11:20:07.085Z,18.30
2023-03-31T11:21:26.455Z,18.19
2023-03-31T11:22:34.877Z,18.01
2023-03-31T11:23:37.446Z,17.91
2023-03-31T11:25:06.402Z,17.76
2023-03-31T11:26:21.985Z,17.67
2023-03-31T11:27:31.047Z,17.60
2023-03-31T11:28:44.414Z,17.44
2023-03-31T11:29:53.977Z,17.44
2023-03-31T11:31:18.179Z,17.50
2023-03-31T11:32:48.326Z,17.48
2023-03-31T11:34:17.048Z,17.38
2023-03-31T11:35:45.675Z,17.36
2023-03-31T11:37:01.349Z,17.28
2023-03-31T11:38:23.981Z,17.27
2023-03-31T11:39:41.732Z,17.27
2023-03-31T11:41:13.738Z,17.23
2023-03-31T11:42:26.392Z,17.25
2023-03-31T11:43:34.866Z,17.24
2023-03-31T11:44:48.526Z,17.16
2023-03-31T11:46:03.822Z,17.15
2023-03-31T11:47:10.828Z,17.32
2023-03-31T11:48:39.206Z,17.45
2023-03-31T11:49:48.161Z,17.60
2023-03-31T11:50:52.727Z,17.76
2023-03-31T11:52:14.609Z,17.91
2023-03-31T11:53:23.990Z,18.11
2023-03-31T11:54:33.535Z,18.17
2023-03-31T11:55:38.815Z,18.25
2023-03-31T11:56:41.949Z,18.21
2023-03-31T11:58:05.270Z,18.11
2023-03-31T11:59:15.755Z,18.14
2023-03-31T12:00:21.006Z,18.03
2023-03-31T12:01:33.878Z,17.92
2023-03-31T12:02:48.818Z,17.96
2023-03-31T12:04:13.223Z,18.02
2023-03-31T12:05:18.130Z,17.99
2023-03-31T12:06:28.220Z,18.05
2023-03-31T12:07:42.863Z,18.04
2023-03-31T12:09:23.403Z,18.08
2023-03-31T12:10:43.236Z,18.26
2023-03-31T12:12:00.940Z,18.47
2023-03-31T12:13:25.609Z,18.51
2023-03-31T12:14:35.462Z,18.63
2023-03-31T12:15:42.273Z,18.71
2023-03-31T12:16:56.252Z,18.69
2023-03-31T12:18:03.672Z,18.67
2023-03-31T12:19:18.975Z,18.67
2023-03-31T12:20:31.673Z,18.77
2023-03-31T12:21:39.106Z,18.85
2023-03-31T12:22:47.509Z,18.96
2023-03-31T12:23:50.396Z,18.96
2023-03-31T12:24:53.785Z,19.04
2023-03-31T12:25:59.984Z,18.93
2023-03-31T12:27:18.865Z,18.93
2023-03-31T12:28:23.570Z,18.86
2023-03-31T12:29:41.841Z,18.79
2023-03-31T12:30:46.711Z,18.68
2023-03-31T12:31:53.372Z,18.57
2023-03-31T12:33:03.052Z,18.51
2023-03-31T12:34:12.823Z,18.34
2023-03-31T12:35:27.591Z,18.12
2023-03-31T12:37:04.591Z,18.08
2023-03-31T12:38:36.725Z,18.04
2023-03-31T12:40:01.178Z,18.00
2023-03-31T12:41:17.865Z,17.98
2023-03-31T12:42:56.997Z,18.08
2023-03-31T12:44:24.216Z,18.13
2023-03-31T12:45:50.089Z,18.26
2023-03-31T12:46:55.510Z,18.31
2023-03-31T12:48:28.988Z,18.44
2023-03-31T12:49:34.647Z,18.38
2023-03-31T12:50:53.746Z,18.48
2023-03-31T12:52:17.285Z,18.43
2023-03-31T12:53:47.887Z,18.52
2023-03-31T12:55:06.166Z,18.57
2023-03-31T12:56:09.140Z,18.54
2023-03-31T12:57:21.594Z,18.38
2023-03-31T12:58:33.228Z,18.24
2023-03-31T12:59:41.249Z,18.25
2023-03-31T13:01:22.235Z,18.23
2023-03-31T13:02:26.747Z,18.17
2023-03-31T13:03:43.939Z,18.22
2023-03-31T13:04:46.675Z,18.24
2023-03-31T13:05:49.556Z,18.33
2023-03-31T13:06:59.943Z,18.42
2023-03-31T13:08:07.948Z,18.57
2023-03-31T13:09:13.432Z,18.75
2023-03-31T13:10:18.827Z,18.75
2023-03-31T13:11:23.433Z,18.79
2023-03-31T13:12:28.805Z,18.89
2023-03-31T13:13:31.727Z,18.95
2023-03-31T13:14:40.536Z,18.89
2023-03-31T13:15:57.091Z,18.73
2023-03-31T13:17:19.329Z,18.71
2023-03-31T13:18:23.184Z,18.83
2023-03-31T13:19:36.849Z,18.89
2023-03-31T13:20:42.296Z,19.02
2023-03-31T13:22:06.394Z,18.90
2023-03-31T13:23:13.495Z,18.82
2023-03-31T13:24:19.198Z,18.67
2023-03-31T13:25:40.605Z,18.62
2023-03-31T13:26:47.417Z,18.55
2023-03-31T13:27:51.025Z,18.43
2023-03-31T13:29:20.443Z,18.43
2023-03-31T13:30:41.664Z,18.35
2023-03-31T13:32:03.201Z,18.22
2023-03-31T13:33:31.336Z,18.10
2023-03-31T13:34:44.286Z,17.97
2023-03-31T13:35:51.572Z,17.91
2023-03-31T13:37:13.282Z,17.82
2023-03-31T13:38:45.102Z,17.75
2023-03-31T13:40:21.584Z,17.73
2023-03-31T13:41:38.452Z,17.60
2023-03-31T13:42:53.047Z,17.52
2023-03-31T13:44:40.233Z,17.42
2023-03-31T13:46:35.061Z,17.41
2023-03-31T13:47:46.126Z,17.23
2023-03-31T13:49:04.064Z,17.26
2023-03-31T13:50:30.803Z,17.27
2023-03-31T13:51:47.064Z,17.23
2023-03-31T13:52:56.187Z,17.20
2023-03-31T13:54:11.068Z,17.14
2023-03-31T13:55:41.244Z,17.02
2023-03-31T13:57:05.432Z,17.01
2023-03-31T13:58:38.083Z,17.08
2023-03-31T14:00:01.213Z,17.08
2023-03-31T14:01:25.014Z,17.02
2023-03-31T14:02:51.532Z,17.00
2023-03-31T14:04:16.625Z,16.99
2023-03-31T14:05:25.532Z,16.99
2023-03-31T14:06:37.783Z,16.91
2023-03-31T14:07:55.519Z,16.93
2023-03-31T14:09:04.392Z,16.88
2023-03-31T14:10:23.161Z,16.85
2023-03-31T14:11:29.317Z,16.88
2023-03-31T14:12:35.190Z,16.83
2023-03-31T14:13:37.863Z,16.79
2023-03-31T14:14:43.471Z,16.84
2023-03-31T14:16:00.417Z,16.91
2023-03-31T14:17:04.161Z,16.92
2023-03-31T14:18:07.952Z,16.82
2023-03-31T14:19:41.926Z,16.96
2023-03-31T14:21:03.572Z,17.05
2023-03-31T14:22:08.823Z,17.10
2023-03-31T14:23:26.779Z,17.20
2023-03-31T14:24:57.401Z,17.26
2023-03-31T14:26:04.193Z,17.33
2023-03-31T14:27:18.787Z,17.30
2023-03-31T14:28:49.928Z,17.35
2023-03-31T14:30:01.634Z,17.36
2023-03-31T14:31:24.227Z,17.37
2023-03-31T14:33:12.065Z,17.40
2023-03-31T14:34:21.403Z,17.41
2023-03-31T14:35:39.659Z,17.38
2023-03-31T14:36:58.086Z,17.44
2023-03-31T14:38:05.030Z,17.41
2023-03-31T14:39:12.343Z,17.46
2023-03-31T14:40:17.578Z,17.45
2023-03-31T14:41:29.952Z,17.45
2023-03-31T14:42:41.039Z,17.38
2023-03-31T14:43:49.733Z,17.40
2023-03-31T14:44:57.679Z,17.33
2023-03-31T14:46:02.268Z,17.29
2023-03-31T14:47:06.439Z,17.19
2023-03-31T14:48:14.744Z,17.24
2023-03-31T14:49:28.539Z,17.10
2023-03-31T14:50:35.789Z,17.05
2023-03-31T14:51:44.221Z,17.04
2023-03-31T14:52:52.489Z,16.96
2023-03-31T14:54:00.213Z,16.88
2023-03-31T14:55:03.134Z,16.83
2023-03-31T14:56:09.794Z,16.76
2023-03-31T14:57:17.606Z,16.65
2023-03-31T14:58:32.316Z,16.65
2023-03-31T14:59:37.567Z,16.54
2023-03-31T15:00:41.538Z,16.47
2023-03-31T15:01:48.343Z,16.43
2023-03-31T15:02:51.565Z,16.44
2023-03-31T15:03:55.604Z,16.32
2023-03-31T15:04:58.753Z,16.29
2023-03-31T15:06:03.557Z,16.20
2023-03-31T15:07:06.765Z,16.19
2023-03-31T15:08:18.434Z,16.24
2023-03-31T15:09:28.809Z,16.25
2023-03-31T15:10:39.106Z,16.29